sensor_id;sensor_type;location;lat;lon;timestamp;pressure;altitude;pressure_sealevel;temperature;humidity
57232;BME280;43488;46.934;8.276;2022-12-11T00:00:28;95716.72;;;-0.14;88.80
57232;BME280;43488;46.934;8.276;2022-12-11T00:02:56;95720.94;;;-0.13;89.17
57232;BME280;43488;46.934;8.276;2022-12-11T00:05:23;95722.53;;;-0.20;88.27
57232;BME280;43488;46.934;8.276;2022-12-11T00:07:51;95718.19;;;-0.11;88.12
57232;BME280;43488;46.934;8.276;2022-12-11T00:10:18;95711.56;;;-0.06;89.58
57232;BME280;43488;46.934;8.276;2022-12-11T00:12:45;95710.25;;;-0.02;88.85
57232;BME280;43488;46.934;8.276;2022-12-11T00:15:13;95708.19;;;-0.06;87.20
57232;BME280;43488;46.934;8.276;2022-12-11T00:17:40;95712.03;;;-0.02;86.73
57232;BME280;43488;46.934;8.276;2022-12-11T00:20:09;95708.16;;;-0.22;87.48
57232;BME280;43488;46.934;8.276;2022-12-11T00:22:36;95704.41;;;-0.28;87.19
57232;BME280;43488;46.934;8.276;2022-12-11T00:25:04;95715.72;;;-0.29;86.27
57232;BME280;43488;46.934;8.276;2022-12-11T00:27:31;95713.00;;;-0.36;85.63
57232;BME280;43488;46.934;8.276;2022-12-11T00:29:59;95701.69;;;-0.26;84.55
57232;BME280;43488;46.934;8.276;2022-12-11T00:32:26;95690.84;;;-0.22;85.29
57232;BME280;43488;46.934;8.276;2022-12-11T00:34:54;95693.59;;;-0.23;84.10
57232;BME280;43488;46.934;8.276;2022-12-11T00:37:22;95701.69;;;-0.26;83.16
57232;BME280;43488;46.934;8.276;2022-12-11T00:39:50;95696.53;;;-0.26;84.24
57232;BME280;43488;46.934;8.276;2022-12-11T00:42:18;95691.34;;;-0.35;84.41
57232;BME280;43488;46.934;8.276;2022-12-11T00:44:45;95684.38;;;-0.42;85.37
57232;BME280;43488;46.934;8.276;2022-12-11T00:47:13;95680.63;;;-0.48;85.09
57232;BME280;43488;46.934;8.276;2022-12-11T00:49:40;95675.00;;;-0.43;85.10
57232;BME280;43488;46.934;8.276;2022-12-11T00:52:08;95691.00;;;-0.40;86.34
57232;BME280;43488;46.934;8.276;2022-12-11T00:54:36;95685.63;;;-0.46;85.89
57232;BME280;43488;46.934;8.276;2022-12-11T00:57:04;95690.19;;;-0.40;85.44
57232;BME280;43488;46.934;8.276;2022-12-11T00:59:31;95688.22;;;-0.46;84.78
57232;BME280;43488;46.934;8.276;2022-12-11T01:01:58;95695.69;;;-0.43;84.17
57232;BME280;43488;46.934;8.276;2022-12-11T01:04:25;95697.28;;;-0.42;83.82
57232;BME280;43488;46.934;8.276;2022-12-11T01:06:52;95703.28;;;-0.34;83.52
57232;BME280;43488;46.934;8.276;2022-12-11T01:09:20;95708.13;;;-0.39;83.04
57232;BME280;43488;46.934;8.276;2022-12-11T01:12:06;95713.63;;;-0.42;83.12
57232;BME280;43488;46.934;8.276;2022-12-11T01:14:33;95718.16;;;-0.36;82.91
57232;BME280;43488;46.934;8.276;2022-12-11T01:17:01;95726.22;;;-0.39;82.36
57232;BME280;43488;46.934;8.276;2022-12-11T01:19:28;95720.56;;;-0.42;82.96
57232;BME280;43488;46.934;8.276;2022-12-11T01:21:56;95712.81;;;-0.42;83.72
57232;BME280;43488;46.934;8.276;2022-12-11T01:24:24;95722.97;;;-0.49;82.59
57232;BME280;43488;46.934;8.276;2022-12-11T01:26:51;95713.75;;;-0.51;84.13
57232;BME280;43488;46.934;8.276;2022-12-11T01:29:18;95729.09;;;-0.50;82.09
57232;BME280;43488;46.934;8.276;2022-12-11T01:31:46;95722.78;;;-0.55;81.27
57232;BME280;43488;46.934;8.276;2022-12-11T01:34:13;95734.78;;;-0.54;83.81
57232;BME280;43488;46.934;8.276;2022-12-11T01:36:41;95747.69;;;-0.46;83.50
57232;BME280;43488;46.934;8.276;2022-12-11T01:39:08;95742.84;;;-0.49;84.88
57232;BME280;43488;46.934;8.276;2022-12-11T01:41:35;95728.94;;;-0.48;82.57
57232;BME280;43488;46.934;8.276;2022-12-11T01:46:57;95732.31;;;-0.56;80.46
57232;BME280;43488;46.934;8.276;2022-12-11T01:49:26;95747.22;;;-0.50;81.87
57232;BME280;43488;46.934;8.276;2022-12-11T01:52:07;95737.97;;;-0.61;82.89
57232;BME280;43488;46.934;8.276;2022-12-11T01:54:37;95731.50;;;-0.57;82.63
57232;BME280;43488;46.934;8.276;2022-12-11T01:57:08;95742.38;;;-0.53;83.75
57232;BME280;43488;46.934;8.276;2022-12-11T01:59:43;95733.63;;;-0.52;82.53
57232;BME280;43488;46.934;8.276;2022-12-11T02:02:28;95745.41;;;-0.58;82.30
57232;BME280;43488;46.934;8.276;2022-12-11T02:04:56;95743.78;;;-0.59;83.24
57232;BME280;43488;46.934;8.276;2022-12-11T02:07:24;95741.19;;;-0.59;83.93
57232;BME280;43488;46.934;8.276;2022-12-11T02:09:52;95735.06;;;-0.58;82.32
57232;BME280;43488;46.934;8.276;2022-12-11T02:12:53;95749.59;;;-0.57;81.25
57232;BME280;43488;46.934;8.276;2022-12-11T02:15:40;95747.22;;;-0.50;80.72
57232;BME280;43488;46.934;8.276;2022-12-11T02:18:28;95756.75;;;-0.50;80.93
57232;BME280;43488;46.934;8.276;2022-12-11T02:27:07;95749.31;;;-0.53;81.13
57232;BME280;43488;46.934;8.276;2022-12-11T02:29:54;95743.66;;;-0.49;80.58
57232;BME280;43488;46.934;8.276;2022-12-11T02:32:52;95745.13;;;-0.38;81.12
57232;BME280;43488;46.934;8.276;2022-12-11T02:38:11;95739.94;;;-0.54;80.85
57232;BME280;43488;46.934;8.276;2022-12-11T02:40:43;95740.22;;;-0.58;81.16
57232;BME280;43488;46.934;8.276;2022-12-11T02:43:15;95738.13;;;-0.62;82.34
57232;BME280;43488;46.934;8.276;2022-12-11T02:45:45;95736.19;;;-0.60;82.60
57232;BME280;43488;46.934;8.276;2022-12-11T02:48:14;95743.31;;;-0.62;82.89
57232;BME280;43488;46.934;8.276;2022-12-11T02:50:47;95751.22;;;-0.64;83.13
57232;BME280;43488;46.934;8.276;2022-12-11T02:53:21;95747.03;;;-0.57;83.26
57232;BME280;43488;46.934;8.276;2022-12-11T02:56:02;95755.44;;;-0.54;82.11
57232;BME280;43488;46.934;8.276;2022-12-11T02:58:33;95746.22;;;-0.57;83.03
57232;BME280;43488;46.934;8.276;2022-12-11T03:01:04;95747.66;;;-0.63;83.17
57232;BME280;43488;46.934;8.276;2022-12-11T03:03:32;95738.28;;;-0.55;84.47
57232;BME280;43488;46.934;8.276;2022-12-11T03:05:59;95731.66;;;-0.58;84.45
57232;BME280;43488;46.934;8.276;2022-12-11T03:08:27;95736.38;;;-0.53;84.06
57232;BME280;43488;46.934;8.276;2022-12-11T03:10:54;95737.50;;;-0.48;85.14
57232;BME280;43488;46.934;8.276;2022-12-11T03:13:22;95736.53;;;-0.47;84.54
57232;BME280;43488;46.934;8.276;2022-12-11T03:18:51;95742.03;;;-0.50;83.15
57232;BME280;43488;46.934;8.276;2022-12-11T03:21:32;95744.00;;;-0.44;84.48
57232;BME280;43488;46.934;8.276;2022-12-11T03:24:04;95747.03;;;-0.48;82.66
57232;BME280;43488;46.934;8.276;2022-12-11T03:26:43;95742.25;;;-0.35;83.23
57232;BME280;43488;46.934;8.276;2022-12-11T03:29:25;95753.41;;;-0.35;83.47
57232;BME280;43488;46.934;8.276;2022-12-11T03:32:11;95750.63;;;-0.41;83.03
57232;BME280;43488;46.934;8.276;2022-12-11T03:38:09;95766.31;;;-0.43;81.58
57232;BME280;43488;46.934;8.276;2022-12-11T03:40:39;95770.38;;;-0.32;82.20
57232;BME280;43488;46.934;8.276;2022-12-11T03:43:08;95775.19;;;-0.37;80.84
57232;BME280;43488;46.934;8.276;2022-12-11T03:45:38;95773.25;;;-0.43;80.47
57232;BME280;43488;46.934;8.276;2022-12-11T03:48:08;95780.38;;;-0.45;79.37
57232;BME280;43488;46.934;8.276;2022-12-11T03:50:39;95789.88;;;-0.46;81.15
57232;BME280;43488;46.934;8.276;2022-12-11T03:53:08;95792.00;;;-0.41;80.52
57232;BME280;43488;46.934;8.276;2022-12-11T03:55:38;95794.75;;;-0.43;79.62
57232;BME280;43488;46.934;8.276;2022-12-11T03:58:06;95790.03;;;-0.47;79.71
57232;BME280;43488;46.934;8.276;2022-12-11T04:00:34;95783.75;;;-0.37;80.77
57232;BME280;43488;46.934;8.276;2022-12-11T04:03:01;95771.34;;;-0.33;79.37
57232;BME280;43488;46.934;8.276;2022-12-11T04:05:48;95776.16;;;-0.38;79.05
57232;BME280;43488;46.934;8.276;2022-12-11T04:08:18;95768.13;;;-0.35;79.86
57232;BME280;43488;46.934;8.276;2022-12-11T04:10:47;95763.91;;;-0.28;80.10
57232;BME280;43488;46.934;8.276;2022-12-11T04:13:14;95768.78;;;-0.25;80.41
57232;BME280;43488;46.934;8.276;2022-12-11T04:15:42;95768.28;;;-0.20;80.34
57232;BME280;43488;46.934;8.276;2022-12-11T04:18:10;95760.38;;;-0.19;80.61
57232;BME280;43488;46.934;8.276;2022-12-11T04:20:56;95758.13;;;-0.14;81.16
57232;BME280;43488;46.934;8.276;2022-12-11T04:23:42;95753.31;;;-0.09;80.51
57232;BME280;43488;46.934;8.276;2022-12-11T04:26:28;95751.97;;;-0.13;80.10
57232;BME280;43488;46.934;8.276;2022-12-11T04:28:55;95747.78;;;-0.14;80.89
57232;BME280;43488;46.934;8.276;2022-12-11T04:31:23;95748.41;;;-0.20;80.75
57232;BME280;43488;46.934;8.276;2022-12-11T04:33:50;95747.13;;;-0.16;80.34
57232;BME280;43488;46.934;8.276;2022-12-11T04:36:18;95748.59;;;-0.13;80.42
57232;BME280;43488;46.934;8.276;2022-12-11T04:38:45;95754.56;;;-0.13;80.77
57232;BME280;43488;46.934;8.276;2022-12-11T04:41:14;95745.84;;;-0.12;81.17
57232;BME280;43488;46.934;8.276;2022-12-11T04:43:42;95753.59;;;-0.12;80.84
57232;BME280;43488;46.934;8.276;2022-12-11T04:46:17;95765.09;;;-0.14;80.43
57232;BME280;43488;46.934;8.276;2022-12-11T04:48:45;95761.34;;;-0.20;80.65
57232;BME280;43488;46.934;8.276;2022-12-11T04:51:14;95766.50;;;-0.20;80.62
57232;BME280;43488;46.934;8.276;2022-12-11T04:53:41;95757.94;;;-0.20;81.60
57232;BME280;43488;46.934;8.276;2022-12-11T04:56:14;95759.69;;;-0.29;82.04
57232;BME280;43488;46.934;8.276;2022-12-11T04:58:43;95755.81;;;-0.33;81.77
57232;BME280;43488;46.934;8.276;2022-12-11T05:01:16;95750.50;;;-0.32;82.74
57232;BME280;43488;46.934;8.276;2022-12-11T05:03:44;95745.81;;;-0.28;82.02
57232;BME280;43488;46.934;8.276;2022-12-11T05:06:13;95741.44;;;-0.36;80.95
57232;BME280;43488;46.934;8.276;2022-12-11T05:08:41;95747.22;;;-0.42;80.20
57232;BME280;43488;46.934;8.276;2022-12-11T05:11:12;95743.03;;;-0.43;78.45
57232;BME280;43488;46.934;8.276;2022-12-11T05:13:40;95734.13;;;-0.48;77.63
57232;BME280;43488;46.934;8.276;2022-12-11T05:16:11;95739.47;;;-0.42;77.68
57232;BME280;43488;46.934;8.276;2022-12-11T05:18:39;95732.34;;;-0.48;77.12
57232;BME280;43488;46.934;8.276;2022-12-11T05:21:10;95732.47;;;-0.58;77.75
57232;BME280;43488;46.934;8.276;2022-12-11T05:23:38;95738.28;;;-0.55;77.89
57232;BME280;43488;46.934;8.276;2022-12-11T05:26:10;95748.63;;;-0.64;78.60
57232;BME280;43488;46.934;8.276;2022-12-11T05:28:39;95742.38;;;-0.53;78.88
57232;BME280;43488;46.934;8.276;2022-12-11T05:31:13;95737.16;;;-0.61;79.82
57232;BME280;43488;46.934;8.276;2022-12-11T05:33:41;95744.44;;;-0.57;80.01
57232;BME280;43488;46.934;8.276;2022-12-11T05:38:45;95737.34;;;-0.54;81.01
57232;BME280;43488;46.934;8.276;2022-12-11T05:41:16;95741.56;;;-0.53;81.03
57232;BME280;43488;46.934;8.276;2022-12-11T05:43:44;95747.84;;;-0.48;80.88
57232;BME280;43488;46.934;8.276;2022-12-11T05:46:15;95754.00;;;-0.49;81.34
57232;BME280;43488;46.934;8.276;2022-12-11T05:48:46;95751.25;;;-0.47;81.31
57232;BME280;43488;46.934;8.276;2022-12-11T05:51:17;95765.50;;;-0.43;82.31
57232;BME280;43488;46.934;8.276;2022-12-11T05:53:47;95768.09;;;-0.43;82.56
57232;BME280;43488;46.934;8.276;2022-12-11T05:56:29;95754.19;;;-0.42;82.02
57232;BME280;43488;46.934;8.276;2022-12-11T05:58:59;95761.56;;;-0.55;82.80
57232;BME280;43488;46.934;8.276;2022-12-11T06:01:37;95763.69;;;-0.51;83.37
57232;BME280;43488;46.934;8.276;2022-12-11T06:04:07;95759.69;;;-0.45;82.81
57232;BME280;43488;46.934;8.276;2022-12-11T06:06:36;95754.94;;;-0.58;81.74
57232;BME280;43488;46.934;8.276;2022-12-11T06:09:05;95757.97;;;-0.71;83.53
57232;BME280;43488;46.934;8.276;2022-12-11T06:11:33;95753.41;;;-0.77;84.73
57232;BME280;43488;46.934;8.276;2022-12-11T06:14:01;95757.97;;;-0.71;84.26
57232;BME280;43488;46.934;8.276;2022-12-11T06:16:29;95754.91;;;-0.66;84.98
57232;BME280;43488;46.934;8.276;2022-12-11T06:18:57;95753.44;;;-0.69;85.54
57232;BME280;43488;46.934;8.276;2022-12-11T06:21:31;95761.03;;;-0.67;85.63
57232;BME280;43488;46.934;8.276;2022-12-11T06:24:02;95755.56;;;-0.64;84.33
57232;BME280;43488;46.934;8.276;2022-12-11T06:26:30;95758.63;;;-0.69;85.02
57232;BME280;43488;46.934;8.276;2022-12-11T06:28:58;95763.44;;;-0.74;84.82
57232;BME280;43488;46.934;8.276;2022-12-11T06:31:25;95762.97;;;-0.69;85.02
57232;BME280;43488;46.934;8.276;2022-12-11T06:33:54;95756.84;;;-0.68;83.85
57232;BME280;43488;46.934;8.276;2022-12-11T06:36:23;95755.03;;;-0.76;83.83
57232;BME280;43488;46.934;8.276;2022-12-11T06:38:51;95756.47;;;-0.73;83.91
57232;BME280;43488;46.934;8.276;2022-12-11T06:41:19;95747.44;;;-0.77;81.90
57232;BME280;43488;46.934;8.276;2022-12-11T06:43:47;95758.44;;;-0.75;82.80
57232;BME280;43488;46.934;8.276;2022-12-11T06:46:17;95748.41;;;-0.78;82.11
57232;BME280;43488;46.934;8.276;2022-12-11T06:48:46;95739.56;;;-1.02;82.30
57232;BME280;43488;46.934;8.276;2022-12-11T06:51:18;95751.44;;;-0.91;82.51
57232;BME280;43488;46.934;8.276;2022-12-11T06:53:54;95756.28;;;-0.88;82.41
57232;BME280;43488;46.934;8.276;2022-12-11T06:56:23;95754.50;;;-0.88;81.45
57232;BME280;43488;46.934;8.276;2022-12-11T06:58:50;95747.72;;;-0.89;80.97
57232;BME280;43488;46.934;8.276;2022-12-11T07:01:24;95757.75;;;-0.86;80.99
57232;BME280;43488;46.934;8.276;2022-12-11T07:03:54;95761.66;;;-0.81;80.88
57232;BME280;43488;46.934;8.276;2022-12-11T07:06:22;95757.56;;;-0.84;80.03
57232;BME280;43488;46.934;8.276;2022-12-11T07:08:50;95762.56;;;-0.91;79.33
57232;BME280;43488;46.934;8.276;2022-12-11T07:11:20;95760.81;;;-0.90;79.27
57232;BME280;43488;46.934;8.276;2022-12-11T07:13:48;95774.97;;;-0.94;79.18
57232;BME280;43488;46.934;8.276;2022-12-11T07:16:16;95766.78;;;-0.90;79.12
57232;BME280;43488;46.934;8.276;2022-12-11T07:18:49;95762.75;;;-0.84;78.55
57232;BME280;43488;46.934;8.276;2022-12-11T07:21:19;95754.31;;;-0.94;79.17
57232;BME280;43488;46.934;8.276;2022-12-11T07:23:49;95768.00;;;-1.02;80.00
57232;BME280;43488;46.934;8.276;2022-12-11T07:26:20;95758.84;;;-1.22;80.17
57232;BME280;43488;46.934;8.276;2022-12-11T07:28:49;95757.38;;;-1.25;81.10
57232;BME280;43488;46.934;8.276;2022-12-11T07:31:21;95758.13;;;-1.06;81.10
57232;BME280;43488;46.934;8.276;2022-12-11T07:33:58;95760.00;;;-1.17;80.65
57232;BME280;43488;46.934;8.276;2022-12-11T07:36:26;95754.41;;;-1.04;80.60
57232;BME280;43488;46.934;8.276;2022-12-11T07:38:54;95758.66;;;-0.95;80.21
57232;BME280;43488;46.934;8.276;2022-12-11T07:41:22;95762.56;;;-0.91;80.49
57232;BME280;43488;46.934;8.276;2022-12-11T07:43:50;95762.75;;;-0.84;79.63
57232;BME280;43488;46.934;8.276;2022-12-11T07:46:23;95765.03;;;-0.81;80.59
57232;BME280;43488;46.934;8.276;2022-12-11T07:48:51;95763.91;;;-0.78;80.70
57232;BME280;43488;46.934;8.276;2022-12-11T07:51:37;95760.84;;;-0.74;81.24
57232;BME280;43488;46.934;8.276;2022-12-11T07:54:09;95769.28;;;-0.72;81.09
57232;BME280;43488;46.934;8.276;2022-12-11T07:56:38;95765.41;;;-0.68;80.32
57232;BME280;43488;46.934;8.276;2022-12-11T07:59:06;95773.66;;;-0.64;79.80
57232;BME280;43488;46.934;8.276;2022-12-11T08:01:35;95776.09;;;-0.63;80.73
57232;BME280;43488;46.934;8.276;2022-12-11T08:04:05;95781.59;;;-0.58;80.79
57232;BME280;43488;46.934;8.276;2022-12-11T08:06:37;95777.75;;;-0.53;80.71
57232;BME280;43488;46.934;8.276;2022-12-11T08:09:07;95778.25;;;-0.50;79.79
57232;BME280;43488;46.934;8.276;2022-12-11T08:11:35;95778.72;;;-0.46;79.38
57232;BME280;43488;46.934;8.276;2022-12-11T08:14:03;95780.03;;;-0.50;79.36
57232;BME280;43488;46.934;8.276;2022-12-11T08:16:32;95783.59;;;-0.43;79.13
57232;BME280;43488;46.934;8.276;2022-12-11T08:19:00;95778.75;;;-0.38;78.68
57232;BME280;43488;46.934;8.276;2022-12-11T08:21:27;95789.78;;;-0.36;77.96
57232;BME280;43488;46.934;8.276;2022-12-11T08:23:55;95781.84;;;-0.35;78.37
57232;BME280;43488;46.934;8.276;2022-12-11T08:26:26;95794.28;;;-0.30;77.87
57232;BME280;43488;46.934;8.276;2022-12-11T08:28:55;95786.88;;;-0.25;77.90
57232;BME280;43488;46.934;8.276;2022-12-11T08:31:22;95784.94;;;-0.23;77.19
57232;BME280;43488;46.934;8.276;2022-12-11T08:33:51;95780.75;;;-0.24;77.77
57232;BME280;43488;46.934;8.276;2022-12-11T08:36:21;95784.47;;;-0.26;78.72
57232;BME280;43488;46.934;8.276;2022-12-11T08:38:49;95777.50;;;-0.26;77.52
57232;BME280;43488;46.934;8.276;2022-12-11T08:41:26;95778.97;;;-0.23;77.23
57232;BME280;43488;46.934;8.276;2022-12-11T08:43:56;95773.59;;;-0.30;77.40
57232;BME280;43488;46.934;8.276;2022-12-11T08:46:28;95786.53;;;-0.30;76.78
57232;BME280;43488;46.934;8.276;2022-12-11T08:48:56;95780.59;;;-0.22;77.56
57232;BME280;43488;46.934;8.276;2022-12-11T08:51:26;95783.53;;;-0.17;77.17
57232;BME280;43488;46.934;8.276;2022-12-11T08:53:58;95785.28;;;-0.10;76.73
57232;BME280;43488;46.934;8.276;2022-12-11T08:56:28;95775.44;;;-0.06;76.84
57232;BME280;43488;46.934;8.276;2022-12-11T08:58:59;95782.59;;;0.00;75.49
57232;BME280;43488;46.934;8.276;2022-12-11T09:01:27;95778.53;;;0.06;76.12
57232;BME280;43488;46.934;8.276;2022-12-11T09:03:55;95780.81;;;0.17;76.63
57232;BME280;43488;46.934;8.276;2022-12-11T09:06:26;95788.28;;;0.28;75.75
57232;BME280;43488;46.934;8.276;2022-12-11T09:08:57;95778.06;;;0.51;75.55
57232;BME280;43488;46.934;8.276;2022-12-11T09:11:33;95772.88;;;0.59;73.18
57232;BME280;43488;46.934;8.276;2022-12-11T09:14:02;95774.50;;;0.76;72.36
57232;BME280;43488;46.934;8.276;2022-12-11T09:16:30;95769.78;;;0.88;71.17
57232;BME280;43488;46.934;8.276;2022-12-11T09:18:58;95770.38;;;1.06;70.59
57232;BME280;43488;46.934;8.276;2022-12-11T09:21:29;95765.34;;;1.13;70.48
57232;BME280;43488;46.934;8.276;2022-12-11T09:24:00;95764.81;;;1.18;69.85
57232;BME280;43488;46.934;8.276;2022-12-11T09:26:29;95764.03;;;1.17;69.60
57232;BME280;43488;46.934;8.276;2022-12-11T09:28:57;95755.16;;;1.11;70.14
57232;BME280;43488;46.934;8.276;2022-12-11T09:31:28;95762.59;;;1.14;70.79
57232;BME280;43488;46.934;8.276;2022-12-11T09:33:59;95759.06;;;0.91;71.90
57232;BME280;43488;46.934;8.276;2022-12-11T09:36:27;95767.81;;;0.82;72.10
57232;BME280;43488;46.934;8.276;2022-12-11T09:39:02;95761.19;;;0.88;72.77
57232;BME280;43488;46.934;8.276;2022-12-11T09:42:07;95754.84;;;0.90;72.70
57232;BME280;43488;46.934;8.276;2022-12-11T09:44:56;95750.34;;;0.92;72.84
57232;BME280;43488;46.934;8.276;2022-12-11T09:47:38;95743.00;;;1.04;72.21
57232;BME280;43488;46.934;8.276;2022-12-11T09:55:24;95730.44;;;1.32;70.79
57232;BME280;43488;46.934;8.276;2022-12-11T09:58:27;95728.13;;;1.37;70.11
57232;BME280;43488;46.934;8.276;2022-12-11T10:01:44;95722.78;;;1.38;69.45
57232;BME280;43488;46.934;8.276;2022-12-11T10:07:42;95719.63;;;1.51;69.25
57232;BME280;43488;46.934;8.276;2022-12-11T10:10:59;95721.78;;;1.48;69.37
57232;BME280;43488;46.934;8.276;2022-12-11T10:16:47;95721.13;;;1.46;69.33
57232;BME280;43488;46.934;8.276;2022-12-11T10:19:25;95718.97;;;1.57;68.77
57232;BME280;43488;46.934;8.276;2022-12-11T10:22:20;95715.66;;;1.63;68.16
57232;BME280;43488;46.934;8.276;2022-12-11T10:24:54;95715.13;;;1.76;66.61
57232;BME280;43488;46.934;8.276;2022-12-11T10:27:29;95716.75;;;1.77;65.97
57232;BME280;43488;46.934;8.276;2022-12-11T10:30:14;95711.28;;;1.95;66.17
57232;BME280;43488;46.934;8.276;2022-12-11T10:32:53;95712.19;;;2.02;65.82
57232;BME280;43488;46.934;8.276;2022-12-11T10:35:35;95714.66;;;2.18;65.38
57232;BME280;43488;46.934;8.276;2022-12-11T10:38:38;95699.25;;;2.54;63.92
57232;BME280;43488;46.934;8.276;2022-12-11T10:41:19;95698.75;;;2.89;61.95
57232;BME280;43488;46.934;8.276;2022-12-11T10:43:50;95694.19;;;3.20;60.77
57232;BME280;43488;46.934;8.276;2022-12-11T10:46:24;95685.94;;;4.32;58.93
57232;BME280;43488;46.934;8.276;2022-12-11T10:48:59;95663.38;;;7.73;50.02
57232;BME280;43488;46.934;8.276;2022-12-11T10:54:07;95642.50;;;13.54;36.69
57232;BME280;43488;46.934;8.276;2022-12-11T10:56:46;95645.69;;;14.96;31.96
57232;BME280;43488;46.934;8.276;2022-12-11T10:59:34;95643.28;;;16.10;30.13
57232;BME280;43488;46.934;8.276;2022-12-11T11:02:06;95645.38;;;17.40;28.04
57232;BME280;43488;46.934;8.276;2022-12-11T11:04:44;95655.25;;;16.33;27.83
57232;BME280;43488;46.934;8.276;2022-12-11T11:07:17;95652.34;;;16.29;28.38
57232;BME280;43488;46.934;8.276;2022-12-11T11:09:45;95645.09;;;18.11;26.63
57232;BME280;43488;46.934;8.276;2022-12-11T11:12:42;95647.06;;;18.35;25.70
57232;BME280;43488;46.934;8.276;2022-12-11T11:15:17;95646.31;;;19.26;24.77
57232;BME280;43488;46.934;8.276;2022-12-11T11:17:54;95636.88;;;20.43;23.30
57232;BME280;43488;46.934;8.276;2022-12-11T11:20:28;95638.25;;;20.73;22.84
57232;BME280;43488;46.934;8.276;2022-12-11T11:23:00;95636.44;;;21.01;22.16
57232;BME280;43488;46.934;8.276;2022-12-11T11:25:30;95636.22;;;20.52;22.01
57232;BME280;43488;46.934;8.276;2022-12-11T11:28:06;95629.97;;;21.90;21.22
57232;BME280;43488;46.934;8.276;2022-12-11T11:30:39;95629.91;;;21.68;21.14
57232;BME280;43488;46.934;8.276;2022-12-11T11:33:18;95626.84;;;21.33;21.58
57232;BME280;43488;46.934;8.276;2022-12-11T11:36:22;95632.19;;;21.61;21.50
57232;BME280;43488;46.934;8.276;2022-12-11T11:39:17;95629.72;;;20.58;20.98
57232;BME280;43488;46.934;8.276;2022-12-11T11:42:09;95614.25;;;20.87;21.34
57232;BME280;43488;46.934;8.276;2022-12-11T11:47:29;95617.47;;;21.03;21.35
57232;BME280;43488;46.934;8.276;2022-12-11T11:50:18;95618.13;;;21.09;21.29
57232;BME280;43488;46.934;8.276;2022-12-11T11:53:13;95613.19;;;21.16;21.07
57232;BME280;43488;46.934;8.276;2022-12-11T11:56:12;95606.00;;;21.44;20.95
57232;BME280;43488;46.934;8.276;2022-12-11T12:01:46;95594.53;;;20.32;21.67
57232;BME280;43488;46.934;8.276;2022-12-11T12:04:13;95595.38;;;20.27;21.85
57232;BME280;43488;46.934;8.276;2022-12-11T12:10:02;95596.28;;;21.34;20.23
57232;BME280;43488;46.934;8.276;2022-12-11T12:13:09;95596.25;;;21.07;20.62
57232;BME280;43488;46.934;8.276;2022-12-11T12:15:57;95590.72;;;21.85;20.75
57232;BME280;43488;46.934;8.276;2022-12-11T12:19:02;95592.03;;;21.61;20.22
57232;BME280;43488;46.934;8.276;2022-12-11T12:21:37;95594.06;;;18.96;22.78
57232;BME280;43488;46.934;8.276;2022-12-11T12:30:16;95599.28;;;13.22;29.50
57232;BME280;43488;46.934;8.276;2022-12-11T12:33:02;95592.56;;;12.25;31.54
57232;BME280;43488;46.934;8.276;2022-12-11T12:36:02;95591.22;;;11.49;32.25
57232;BME280;43488;46.934;8.276;2022-12-11T12:38:52;95602.44;;;11.04;33.60
57232;BME280;43488;46.934;8.276;2022-12-11T12:42:10;95593.28;;;14.02;29.61
57232;BME280;43488;46.934;8.276;2022-12-11T12:47:38;95580.06;;;16.88;25.53
57232;BME280;43488;46.934;8.276;2022-12-11T12:50:20;95593.38;;;16.12;25.96
57232;BME280;43488;46.934;8.276;2022-12-11T12:52:50;95577.94;;;16.95;25.49
57232;BME280;43488;46.934;8.276;2022-12-11T12:55:25;95582.69;;;18.17;23.99
57232;BME280;43488;46.934;8.276;2022-12-11T12:58:02;95578.44;;;17.77;23.82
57232;BME280;43488;46.934;8.276;2022-12-11T13:00:42;95582.19;;;16.91;24.79
57232;BME280;43488;46.934;8.276;2022-12-11T13:03:31;95590.91;;;17.17;24.81
57232;BME280;43488;46.934;8.276;2022-12-11T13:06:03;95581.13;;;17.67;24.52
57232;BME280;43488;46.934;8.276;2022-12-11T13:08:47;95582.13;;;18.55;22.98
57232;BME280;43488;46.934;8.276;2022-12-11T13:11:17;95579.03;;;19.06;22.39
57232;BME280;43488;46.934;8.276;2022-12-11T13:14:06;95584.63;;;18.80;22.54
57232;BME280;43488;46.934;8.276;2022-12-11T13:16:40;95581.41;;;19.07;22.52
57232;BME280;43488;46.934;8.276;2022-12-11T13:22:20;95597.94;;;17.52;24.66
57232;BME280;43488;46.934;8.276;2022-12-11T13:25:21;95595.72;;;15.83;26.49
57232;BME280;43488;46.934;8.276;2022-12-11T13:27:48;95600.88;;;14.95;28.35
57232;BME280;43488;46.934;8.276;2022-12-11T13:33:02;95619.91;;;13.25;29.99
57232;BME280;43488;46.934;8.276;2022-12-11T13:35:32;95619.41;;;12.05;31.79
57232;BME280;43488;46.934;8.276;2022-12-11T13:38:06;95618.16;;;10.75;34.56
57232;BME280;43488;46.934;8.276;2022-12-11T13:40:38;95624.59;;;9.73;36.29
57232;BME280;43488;46.934;8.276;2022-12-11T13:43:25;95624.41;;;8.64;38.21
57232;BME280;43488;46.934;8.276;2022-12-11T13:46:05;95625.28;;;7.70;39.94
57232;BME280;43488;46.934;8.276;2022-12-11T13:48:56;95623.50;;;7.19;41.19
57232;BME280;43488;46.934;8.276;2022-12-11T13:51:29;95631.31;;;6.68;42.70
57232;BME280;43488;46.934;8.276;2022-12-11T13:54:15;95631.31;;;6.21;45.37
57232;BME280;43488;46.934;8.276;2022-12-11T13:57:16;95631.34;;;5.95;46.25
57232;BME280;43488;46.934;8.276;2022-12-11T13:59:52;95634.66;;;5.62;47.25
57232;BME280;43488;46.934;8.276;2022-12-11T14:02:28;95636.75;;;5.26;47.69
57232;BME280;43488;46.934;8.276;2022-12-11T14:05:07;95645.06;;;5.01;48.18
57232;BME280;43488;46.934;8.276;2022-12-11T14:07:42;95643.41;;;4.94;48.70
57232;BME280;43488;46.934;8.276;2022-12-11T14:10:19;95638.78;;;4.54;49.15
57232;BME280;43488;46.934;8.276;2022-12-11T14:13:04;95647.47;;;4.34;49.65
57232;BME280;43488;46.934;8.276;2022-12-11T14:15:34;95647.41;;;4.27;49.85
57232;BME280;43488;46.934;8.276;2022-12-11T14:18:03;95651.66;;;4.07;50.02
57232;BME280;43488;46.934;8.276;2022-12-11T14:20:32;95646.38;;;4.21;50.10
57232;BME280;43488;46.934;8.276;2022-12-11T14:23:16;95650.72;;;3.93;50.42
57232;BME280;43488;46.934;8.276;2022-12-11T14:25:55;95656.25;;;4.05;51.16
57232;BME280;43488;46.934;8.276;2022-12-11T14:28:25;95657.09;;;3.69;53.14
57232;BME280;43488;46.934;8.276;2022-12-11T14:30:58;95659.03;;;3.46;53.80
57232;BME280;43488;46.934;8.276;2022-12-11T14:33:39;95659.63;;;3.26;54.85
57232;BME280;43488;46.934;8.276;2022-12-11T14:36:09;95671.50;;;3.14;55.10